SXS8RW EBBR-LTAI
Flight info
| Callsign | SXS8RW |
|---|---|
| Flight time | 3h 19m |
| Altitude | 35000 |
| Route | PITES DCT VEKIR DCT RADIZ DCT NIPEL DCT ELTIB DCT ENFAR DCT TALAS DCT TSL DCT RIKSO UP14 LAVTA UN135 NESIL |
| Aircraft | B738/M-SDE2E3FGHIRWXY/LB1 |
Departure
| Time | 2026-05-05 18:07 |
|---|---|
| Airport | Brussels Airport (EBBR) |
Arrival
| Time | 2026-05-05 21:26 |
|---|---|
| Airport | Antalya International Airport (LTAI) |
| Time | Latitude | Longitude | Altitude | Speed | Heading |
|---|---|---|---|---|---|
| 2026-05-05 17:18 | 50.90059 | 4.48642 | 140 ft | 0 kts | 156° |
| 2026-05-05 17:49 | 50.90066 | 4.48637 | 140 ft | 4 kts | 154° |
| 2026-05-05 17:49 | 50.90087 | 4.48615 | 138 ft | 4 kts | 135° |
| 2026-05-05 17:49 | 50.90101 | 4.48583 | 137 ft | 4 kts | 106° |
| 2026-05-05 17:49 | 50.90103 | 4.48546 | 137 ft | 4 kts | 71° |
| 2026-05-05 17:50 | 50.90101 | 4.48536 | 137 ft | 1 kts | 67° |
| 2026-05-05 17:53 | 50.90101 | 4.48538 | 137 ft | 1 kts | 67° |
| 2026-05-05 17:53 | 50.90107 | 4.48560 | 137 ft | 4 kts | 67° |
| 2026-05-05 17:53 | 50.90121 | 4.48612 | 137 ft | 6 kts | 65° |
| 2026-05-05 17:54 | 50.90143 | 4.48687 | 136 ft | 9 kts | 65° |
| 2026-05-05 17:54 | 50.90172 | 4.48785 | 136 ft | 10 kts | 65° |
| 2026-05-05 17:54 | 50.90201 | 4.48886 | 136 ft | 10 kts | 66° |
| 2026-05-05 17:54 | 50.90228 | 4.48983 | 136 ft | 10 kts | 67° |
| 2026-05-05 17:55 | 50.90256 | 4.49079 | 136 ft | 9 kts | 63° |
| 2026-05-05 17:55 | 50.90284 | 4.49170 | 135 ft | 9 kts | 65° |
| 2026-05-05 17:55 | 50.90310 | 4.49261 | 135 ft | 9 kts | 65° |
| 2026-05-05 17:55 | 50.90336 | 4.49349 | 135 ft | 9 kts | 66° |
| 2026-05-05 17:56 | 50.90360 | 4.49435 | 134 ft | 8 kts | 66° |
| 2026-05-05 17:56 | 50.90358 | 4.49520 | 135 ft | 8 kts | 127° |
| 2026-05-05 17:56 | 50.90305 | 4.49530 | 137 ft | 8 kts | 192° |
| 2026-05-05 17:56 | 50.90253 | 4.49510 | 138 ft | 8 kts | 192° |
| 2026-05-05 17:57 | 50.90199 | 4.49488 | 140 ft | 8 kts | 194° |
| 2026-05-05 17:57 | 50.90145 | 4.49465 | 142 ft | 8 kts | 195° |
| 2026-05-05 17:57 | 50.90089 | 4.49442 | 143 ft | 9 kts | 194° |
| 2026-05-05 17:57 | 50.90027 | 4.49417 | 145 ft | 9 kts | 194° |
| 2026-05-05 17:58 | 50.89966 | 4.49393 | 147 ft | 9 kts | 194° |
| 2026-05-05 17:58 | 50.89908 | 4.49369 | 149 ft | 9 kts | 195° |
| 2026-05-05 17:58 | 50.89850 | 4.49345 | 151 ft | 8 kts | 195° |
| 2026-05-05 17:58 | 50.89795 | 4.49322 | 153 ft | 8 kts | 195° |
| 2026-05-05 17:59 | 50.89741 | 4.49299 | 154 ft | 8 kts | 195° |
| 2026-05-05 17:59 | 50.89688 | 4.49278 | 156 ft | 8 kts | 194° |
| 2026-05-05 17:59 | 50.89637 | 4.49258 | 157 ft | 7 kts | 196° |
| 2026-05-05 17:59 | 50.89596 | 4.49215 | 159 ft | 7 kts | 217° |
| 2026-05-05 18:00 | 50.89551 | 4.49183 | 160 ft | 7 kts | 196° |
| 2026-05-05 18:00 | 50.89504 | 4.49163 | 162 ft | 7 kts | 194° |
| 2026-05-05 18:00 | 50.89451 | 4.49142 | 163 ft | 8 kts | 194° |
| 2026-05-05 18:00 | 50.89396 | 4.49119 | 165 ft | 8 kts | 194° |
| 2026-05-05 18:01 | 50.89347 | 4.49085 | 166 ft | 8 kts | 221° |
| 2026-05-05 18:01 | 50.89323 | 4.49011 | 168 ft | 7 kts | 250° |
| 2026-05-05 18:01 | 50.89305 | 4.48935 | 168 ft | 8 kts | 249° |
| 2026-05-05 18:01 | 50.89285 | 4.48852 | 169 ft | 9 kts | 249° |
| 2026-05-05 18:02 | 50.89265 | 4.48762 | 170 ft | 9 kts | 250° |
| 2026-05-05 18:02 | 50.89242 | 4.48660 | 170 ft | 11 kts | 250° |
| 2026-05-05 18:02 | 50.89214 | 4.48539 | 171 ft | 12 kts | 250° |
| 2026-05-05 18:02 | 50.89186 | 4.48419 | 172 ft | 11 kts | 250° |
| 2026-05-05 18:03 | 50.89158 | 4.48302 | 172 ft | 11 kts | 249° |
| 2026-05-05 18:03 | 50.89132 | 4.48189 | 173 ft | 11 kts | 250° |
| 2026-05-05 18:03 | 50.89107 | 4.48079 | 173 ft | 10 kts | 250° |
| 2026-05-05 18:03 | 50.89083 | 4.47973 | 173 ft | 8 kts | 249° |
| 2026-05-05 18:04 | 50.89077 | 4.47954 | 174 ft | 0 kts | 243° |
| 2026-05-05 18:04 | 50.89076 | 4.47952 | 174 ft | 1 kts | 242° |
| 2026-05-05 18:05 | 50.89068 | 4.47934 | 174 ft | 4 kts | 232° |
| 2026-05-05 18:05 | 50.89035 | 4.47904 | 174 ft | 7 kts | 191° |
| 2026-05-05 18:05 | 50.88982 | 4.47920 | 174 ft | 9 kts | 158° |
| 2026-05-05 18:05 | 50.88942 | 4.47991 | 173 ft | 9 kts | 104° |
| 2026-05-05 18:06 | 50.88928 | 4.48087 | 173 ft | 9 kts | 100° |
| 2026-05-05 18:06 | 50.88931 | 4.48150 | 173 ft | 9 kts | 76° |
| 2026-05-05 18:06 | 50.88998 | 4.48448 | 173 ft | 57 kts | 70° |
| 2026-05-05 18:06 | 50.89216 | 4.49387 | 167 ft | 123 kts | 70° |
| 2026-05-05 18:07 | 50.89579 | 4.50921 | 219 ft | 170 kts | 68° |
| 2026-05-05 18:07 | 50.89995 | 4.52677 | 869 ft | 174 kts | 68° |
| 2026-05-05 18:07 | 50.90495 | 4.54426 | 1701 ft | 172 kts | 61° |
| 2026-05-05 18:07 | 50.91056 | 4.56104 | 2432 ft | 172 kts | 60° |
| 2026-05-05 18:08 | 50.91599 | 4.57745 | 3181 ft | 171 kts | 60° |
| 2026-05-05 18:08 | 50.92167 | 4.59472 | 3672 ft | 189 kts | 61° |
| 2026-05-05 18:08 | 50.92813 | 4.61443 | 3872 ft | 213 kts | 61° |
| 2026-05-05 18:08 | 50.93528 | 4.63639 | 4133 ft | 233 kts | 62° |
| 2026-05-05 18:09 | 50.94163 | 4.66164 | 4410 ft | 256 kts | 72° |
| 2026-05-05 18:09 | 50.94664 | 4.68881 | 5082 ft | 263 kts | 73° |
| 2026-05-05 18:09 | 50.95178 | 4.71700 | 5816 ft | 268 kts | 73° |
| 2026-05-05 18:09 | 50.95656 | 4.74485 | 6535 ft | 273 kts | 82° |
| 2026-05-05 18:10 | 50.95465 | 4.77485 | 7209 ft | 278 kts | 112° |
| 2026-05-05 18:10 | 50.94426 | 4.79989 | 7964 ft | 279 kts | 135° |
| 2026-05-05 18:10 | 50.92989 | 4.81952 | 8642 ft | 283 kts | 141° |
| 2026-05-05 18:10 | 50.91445 | 4.83916 | 9361 ft | 286 kts | 141° |
| 2026-05-05 18:11 | 50.89924 | 4.85866 | 10073 ft | 289 kts | 141° |
| 2026-05-05 18:11 | 50.88231 | 4.87691 | 10357 ft | 308 kts | 159° |
| 2026-05-05 18:11 | 50.86068 | 4.88437 | 10568 ft | 328 kts | 174° |
| 2026-05-05 18:11 | 50.83733 | 4.88793 | 10862 ft | 344 kts | 175° |
| 2026-05-05 18:12 | 50.81323 | 4.89118 | 11464 ft | 349 kts | 175° |
| 2026-05-05 18:12 | 50.78900 | 4.89453 | 12195 ft | 351 kts | 175° |
| 2026-05-05 18:12 | 50.76467 | 4.89809 | 12898 ft | 353 kts | 175° |
| 2026-05-05 18:12 | 50.74010 | 4.90184 | 13538 ft | 357 kts | 175° |
| 2026-05-05 18:13 | 50.71527 | 4.90571 | 14181 ft | 359 kts | 174° |
| 2026-05-05 18:13 | 50.69029 | 4.90962 | 14812 ft | 362 kts | 174° |
| 2026-05-05 18:13 | 50.66571 | 4.91870 | 15393 ft | 367 kts | 157° |
| 2026-05-05 18:13 | 50.64413 | 4.94035 | 16020 ft | 371 kts | 139° |
| 2026-05-05 18:14 | 50.62533 | 4.96846 | 16607 ft | 374 kts | 136° |
| 2026-05-05 18:14 | 50.60680 | 4.99757 | 17147 ft | 378 kts | 136° |
| 2026-05-05 18:14 | 50.58840 | 5.02679 | 17682 ft | 382 kts | 136° |
| 2026-05-05 18:14 | 50.56941 | 5.05685 | 18246 ft | 384 kts | 136° |
| 2026-05-05 18:15 | 50.55070 | 5.08625 | 18770 ft | 387 kts | 136° |
| 2026-05-05 18:15 | 50.53142 | 5.11632 | 19295 ft | 390 kts | 136° |
| 2026-05-05 18:15 | 50.51207 | 5.14632 | 19816 ft | 393 kts | 136° |
| 2026-05-05 18:15 | 50.49254 | 5.17647 | 20353 ft | 394 kts | 137° |
| 2026-05-05 18:16 | 50.47285 | 5.20676 | 20835 ft | 397 kts | 137° |
| 2026-05-05 18:16 | 50.45308 | 5.23714 | 21312 ft | 399 kts | 137° |
| 2026-05-05 18:16 | 50.43312 | 5.26777 | 21766 ft | 402 kts | 137° |
| 2026-05-05 18:16 | 50.41292 | 5.29874 | 22213 ft | 405 kts | 137° |
| 2026-05-05 18:17 | 50.39285 | 5.32945 | 22642 ft | 407 kts | 137° |
| 2026-05-05 18:17 | 50.37273 | 5.36021 | 23058 ft | 410 kts | 137° |
| 2026-05-05 18:17 | 50.35228 | 5.39145 | 23483 ft | 411 kts | 137° |
| 2026-05-05 18:17 | 50.33173 | 5.42280 | 23897 ft | 413 kts | 137° |
| 2026-05-05 18:18 | 50.31102 | 5.45433 | 24275 ft | 416 kts | 137° |
| 2026-05-05 18:18 | 50.29027 | 5.48590 | 24664 ft | 418 kts | 137° |
| 2026-05-05 18:18 | 50.26940 | 5.51761 | 25091 ft | 418 kts | 136° |
| 2026-05-05 18:18 | 50.24852 | 5.54930 | 25476 ft | 420 kts | 136° |
| 2026-05-05 18:19 | 50.22756 | 5.58105 | 25879 ft | 420 kts | 136° |
| 2026-05-05 18:19 | 50.20643 | 5.61304 | 26243 ft | 422 kts | 136° |
| 2026-05-05 18:19 | 50.18533 | 5.64493 | 26608 ft | 422 kts | 136° |
| 2026-05-05 18:19 | 50.16443 | 5.67649 | 26976 ft | 423 kts | 136° |
| 2026-05-05 18:20 | 50.14328 | 5.70840 | 27310 ft | 424 kts | 136° |
| 2026-05-05 18:20 | 50.12196 | 5.74050 | 27659 ft | 425 kts | 136° |
| 2026-05-05 18:20 | 50.10078 | 5.77236 | 28028 ft | 424 kts | 136° |
| 2026-05-05 18:20 | 50.07946 | 5.80437 | 28325 ft | 426 kts | 136° |
| 2026-05-05 18:21 | 50.05803 | 5.83648 | 28612 ft | 427 kts | 135° |
| 2026-05-05 18:21 | 50.03656 | 5.86863 | 28941 ft | 427 kts | 135° |
| 2026-05-05 18:21 | 50.01538 | 5.90030 | 29231 ft | 428 kts | 135° |
| 2026-05-05 18:21 | 49.99389 | 5.93240 | 29502 ft | 429 kts | 135° |
| 2026-05-05 18:22 | 49.97238 | 5.96451 | 29834 ft | 428 kts | 135° |
| 2026-05-05 18:22 | 49.95098 | 5.99645 | 30231 ft | 425 kts | 135° |
| 2026-05-05 18:22 | 49.92965 | 6.02823 | 30640 ft | 422 kts | 135° |
| 2026-05-05 18:22 | 49.90848 | 6.05973 | 30940 ft | 422 kts | 135° |
| 2026-05-05 18:23 | 49.88728 | 6.09124 | 31210 ft | 422 kts | 136° |
| 2026-05-05 18:23 | 49.86634 | 6.12302 | 31498 ft | 421 kts | 131° |
| 2026-05-05 18:23 | 49.84954 | 6.16002 | 31716 ft | 422 kts | 119° |
| 2026-05-05 18:23 | 49.83599 | 6.20049 | 32008 ft | 422 kts | 118° |
| 2026-05-05 18:24 | 49.82281 | 6.24102 | 32277 ft | 421 kts | 118° |
| 2026-05-05 18:24 | 49.80954 | 6.28152 | 32486 ft | 422 kts | 118° |
| 2026-05-05 18:24 | 49.79612 | 6.32186 | 32751 ft | 421 kts | 119° |
| 2026-05-05 18:24 | 49.78259 | 6.36199 | 33009 ft | 420 kts | 119° |
| 2026-05-05 18:25 | 49.76914 | 6.40152 | 33223 ft | 421 kts | 120° |
| 2026-05-05 18:25 | 49.74177 | 6.48168 | 33638 ft | 421 kts | 120° |
| 2026-05-05 18:25 | 49.72812 | 6.52175 | 33863 ft | 421 kts | 119° |
| 2026-05-05 18:26 | 49.71553 | 6.56286 | 34024 ft | 423 kts | 116° |
| 2026-05-05 18:26 | 49.70379 | 6.60478 | 34169 ft | 425 kts | 115° |
| 2026-05-05 18:26 | 49.69242 | 6.64686 | 34344 ft | 426 kts | 115° |
| 2026-05-05 18:26 | 49.68104 | 6.68912 | 34479 ft | 427 kts | 115° |
| 2026-05-05 18:27 | 49.66952 | 6.73162 | 34641 ft | 428 kts | 116° |
| 2026-05-05 18:27 | 49.65792 | 6.77397 | 34771 ft | 429 kts | 116° |
| 2026-05-05 18:27 | 49.64617 | 6.81642 | 34809 ft | 431 kts | 116° |
| 2026-05-05 18:28 | 49.61072 | 6.94316 | 34808 ft | 429 kts | 116° |
| 2026-05-05 18:28 | 49.58694 | 7.02753 | 34815 ft | 428 kts | 116° |
| 2026-05-05 18:29 | 49.56700 | 7.09805 | 34832 ft | 428 kts | 116° |
| 2026-05-05 18:29 | 49.54319 | 7.18201 | 34824 ft | 427 kts | 117° |
| 2026-05-05 18:30 | 49.51950 | 7.26524 | 34822 ft | 427 kts | 117° |
| 2026-05-05 18:30 | 49.49556 | 7.34906 | 34810 ft | 427 kts | 117° |
| 2026-05-05 18:31 | 49.47159 | 7.43278 | 34817 ft | 428 kts | 117° |
| 2026-05-05 18:31 | 49.44751 | 7.51649 | 34815 ft | 428 kts | 117° |
| 2026-05-05 18:32 | 49.42334 | 7.60022 | 34809 ft | 428 kts | 117° |
| 2026-05-05 18:32 | 49.39910 | 7.68390 | 34802 ft | 429 kts | 117° |
| 2026-05-05 18:33 | 49.37482 | 7.76748 | 34805 ft | 429 kts | 117° |
| 2026-05-05 18:33 | 49.35059 | 7.85059 | 34802 ft | 429 kts | 117° |
| 2026-05-05 18:34 | 49.32613 | 7.93417 | 34820 ft | 429 kts | 117° |
| 2026-05-05 18:34 | 49.30157 | 8.01784 | 34813 ft | 429 kts | 117° |
| 2026-05-05 18:35 | 49.27700 | 8.10122 | 34815 ft | 429 kts | 118° |
| 2026-05-05 18:35 | 49.25238 | 8.18446 | 34821 ft | 430 kts | 118° |
| 2026-05-05 18:36 | 49.22780 | 8.26729 | 34828 ft | 430 kts | 118° |
| 2026-05-05 18:36 | 49.20297 | 8.35072 | 34823 ft | 431 kts | 118° |
| 2026-05-05 18:37 | 49.17787 | 8.43473 | 34832 ft | 432 kts | 118° |
| 2026-05-05 18:37 | 49.15296 | 8.51787 | 34834 ft | 433 kts | 118° |
| 2026-05-05 18:38 | 49.12773 | 8.60175 | 34830 ft | 435 kts | 118° |
| 2026-05-05 18:38 | 49.10235 | 8.68584 | 34835 ft | 437 kts | 118° |
| 2026-05-05 18:39 | 49.07685 | 8.77008 | 34836 ft | 438 kts | 118° |
| 2026-05-05 18:39 | 49.05118 | 8.85458 | 34833 ft | 439 kts | 119° |
| 2026-05-05 18:40 | 49.02554 | 8.93864 | 34841 ft | 440 kts | 119° |
| 2026-05-05 18:40 | 48.99961 | 9.02340 | 34832 ft | 441 kts | 119° |
| 2026-05-05 18:41 | 48.97362 | 9.10807 | 34834 ft | 441 kts | 119° |
| 2026-05-05 18:41 | 48.94759 | 9.19256 | 34829 ft | 441 kts | 119° |
| 2026-05-05 18:42 | 48.92146 | 9.27712 | 34834 ft | 441 kts | 119° |
| 2026-05-05 18:42 | 48.89531 | 9.36143 | 34834 ft | 441 kts | 119° |
| 2026-05-05 18:43 | 48.86910 | 9.44565 | 34844 ft | 440 kts | 120° |
| 2026-05-05 18:43 | 48.84300 | 9.52924 | 34844 ft | 440 kts | 120° |
| 2026-05-05 18:44 | 48.81668 | 9.61328 | 34841 ft | 441 kts | 120° |
| 2026-05-05 18:44 | 48.79028 | 9.69727 | 34842 ft | 441 kts | 120° |
| 2026-05-05 18:45 | 48.76376 | 9.78135 | 34846 ft | 442 kts | 120° |
| 2026-05-05 18:45 | 48.73713 | 9.86558 | 34843 ft | 443 kts | 120° |
| 2026-05-05 18:46 | 48.70893 | 9.94798 | 34839 ft | 441 kts | 125° |
| 2026-05-05 18:46 | 48.67706 | 10.02750 | 34846 ft | 442 kts | 126° |
| 2026-05-05 18:47 | 48.64466 | 10.10678 | 34846 ft | 443 kts | 126° |
| 2026-05-05 18:47 | 48.61232 | 10.18662 | 34842 ft | 445 kts | 126° |
| 2026-05-05 18:48 | 48.58003 | 10.26680 | 34843 ft | 447 kts | 126° |
| 2026-05-05 18:48 | 48.54765 | 10.34716 | 34840 ft | 449 kts | 126° |
| 2026-05-05 18:49 | 48.51530 | 10.42721 | 34832 ft | 450 kts | 126° |
| 2026-05-05 18:49 | 48.48262 | 10.50785 | 34837 ft | 450 kts | 126° |
| 2026-05-05 18:50 | 48.44991 | 10.58829 | 34833 ft | 450 kts | 126° |
| 2026-05-05 18:50 | 48.41719 | 10.66849 | 34830 ft | 450 kts | 126° |
| 2026-05-05 18:51 | 48.38435 | 10.74873 | 34835 ft | 450 kts | 126° |
| 2026-05-05 18:51 | 48.35149 | 10.82884 | 34833 ft | 449 kts | 126° |
| 2026-05-05 18:52 | 48.31864 | 10.90867 | 34834 ft | 448 kts | 126° |
| 2026-05-05 18:52 | 48.28596 | 10.98781 | 34833 ft | 448 kts | 126° |
| 2026-05-05 18:53 | 48.25308 | 11.06722 | 34833 ft | 448 kts | 126° |
| 2026-05-05 18:53 | 48.22009 | 11.14667 | 34833 ft | 449 kts | 126° |
| 2026-05-05 18:54 | 48.18697 | 11.22617 | 34834 ft | 450 kts | 126° |
| 2026-05-05 18:54 | 48.15365 | 11.30594 | 34833 ft | 452 kts | 126° |
| 2026-05-05 18:55 | 48.12021 | 11.38577 | 34834 ft | 453 kts | 125° |
| 2026-05-05 18:55 | 48.08654 | 11.46589 | 34835 ft | 456 kts | 125° |
| 2026-05-05 18:56 | 48.05295 | 11.54562 | 34836 ft | 457 kts | 125° |
| 2026-05-05 18:56 | 48.01885 | 11.62627 | 34833 ft | 459 kts | 126° |
| 2026-05-05 18:57 | 47.98458 | 11.70712 | 34832 ft | 461 kts | 126° |
| 2026-05-05 18:57 | 47.95011 | 11.78819 | 34837 ft | 462 kts | 126° |
| 2026-05-05 18:58 | 47.91573 | 11.86884 | 34833 ft | 464 kts | 126° |
| 2026-05-05 18:58 | 47.88098 | 11.95005 | 34824 ft | 465 kts | 126° |
| 2026-05-05 18:59 | 47.84619 | 12.03114 | 34830 ft | 464 kts | 126° |
| 2026-05-05 18:59 | 47.81139 | 12.11203 | 34822 ft | 463 kts | 126° |
| 2026-05-05 19:00 | 47.77660 | 12.19266 | 34833 ft | 462 kts | 126° |
| 2026-05-05 19:00 | 47.74206 | 12.27247 | 34835 ft | 461 kts | 126° |
| 2026-05-05 19:01 | 47.70733 | 12.35248 | 34843 ft | 460 kts | 126° |
| 2026-05-05 19:01 | 47.67256 | 12.43237 | 34841 ft | 460 kts | 126° |
| 2026-05-05 19:02 | 47.63774 | 12.51208 | 34838 ft | 459 kts | 127° |
| 2026-05-05 19:02 | 47.59592 | 12.58230 | 34850 ft | 452 kts | 141° |
| 2026-05-05 19:03 | 47.54930 | 12.64409 | 34846 ft | 452 kts | 141° |
| 2026-05-05 19:03 | 47.50207 | 12.70648 | 34839 ft | 452 kts | 141° |
| 2026-05-05 19:04 | 47.45533 | 12.76883 | 34852 ft | 453 kts | 141° |
| 2026-05-05 19:04 | 47.40876 | 12.83118 | 34855 ft | 454 kts | 141° |
| 2026-05-05 19:05 | 47.36176 | 12.89405 | 34849 ft | 456 kts | 141° |
| 2026-05-05 19:05 | 47.31468 | 12.95684 | 34855 ft | 457 kts | 141° |
| 2026-05-05 19:06 | 47.26776 | 13.01925 | 34864 ft | 458 kts | 141° |
| 2026-05-05 19:06 | 47.22035 | 13.08217 | 34877 ft | 458 kts | 141° |
| 2026-05-05 19:07 | 47.18062 | 13.13475 | 34885 ft | 459 kts | 141° |
| 2026-05-05 19:07 | 47.12542 | 13.20763 | 34885 ft | 459 kts | 141° |
| 2026-05-05 19:08 | 47.07776 | 13.27039 | 34885 ft | 460 kts | 141° |
| 2026-05-05 19:08 | 47.03038 | 13.33260 | 34899 ft | 460 kts | 141° |
| 2026-05-05 19:09 | 46.98273 | 13.39503 | 34905 ft | 459 kts | 141° |
| 2026-05-05 19:09 | 46.93515 | 13.45721 | 34899 ft | 459 kts | 141° |
| 2026-05-05 19:10 | 46.88747 | 13.51939 | 34907 ft | 459 kts | 141° |
| 2026-05-05 19:10 | 46.83982 | 13.58133 | 34923 ft | 459 kts | 141° |
| 2026-05-05 19:11 | 46.79200 | 13.64339 | 34921 ft | 460 kts | 141° |
| 2026-05-05 19:11 | 46.74402 | 13.70546 | 34931 ft | 460 kts | 141° |
| 2026-05-05 19:12 | 46.69610 | 13.76733 | 34922 ft | 460 kts | 141° |
| 2026-05-05 19:12 | 46.65623 | 13.81871 | 34926 ft | 460 kts | 141° |
| 2026-05-05 19:13 | 46.60823 | 13.88043 | 34939 ft | 460 kts | 141° |
| 2026-05-05 19:13 | 46.56027 | 13.94187 | 34954 ft | 459 kts | 141° |
| 2026-05-05 19:14 | 46.51230 | 14.00323 | 34954 ft | 459 kts | 141° |
| 2026-05-05 19:14 | 46.46450 | 14.06492 | 34957 ft | 459 kts | 140° |
| 2026-05-05 19:15 | 46.41820 | 14.12713 | 34959 ft | 460 kts | 140° |
| 2026-05-05 19:15 | 46.37127 | 14.19045 | 34963 ft | 461 kts | 140° |
| 2026-05-05 19:16 | 46.32417 | 14.25360 | 34970 ft | 461 kts | 140° |
| 2026-05-05 19:16 | 46.27697 | 14.31655 | 34979 ft | 462 kts | 140° |
| 2026-05-05 19:17 | 46.22989 | 14.37913 | 34993 ft | 462 kts | 140° |
| 2026-05-05 19:17 | 46.18252 | 14.44191 | 34987 ft | 463 kts | 140° |
| 2026-05-05 19:18 | 46.13500 | 14.50473 | 34990 ft | 463 kts | 140° |
| 2026-05-05 19:18 | 46.08738 | 14.56753 | 34984 ft | 464 kts | 140° |
| 2026-05-05 19:19 | 46.03971 | 14.63026 | 34986 ft | 464 kts | 140° |
| 2026-05-05 19:19 | 45.99206 | 14.69282 | 34982 ft | 463 kts | 140° |
| 2026-05-05 19:20 | 45.94435 | 14.75531 | 34987 ft | 464 kts | 140° |
| 2026-05-05 19:20 | 45.89675 | 14.81750 | 35002 ft | 464 kts | 141° |
| 2026-05-05 19:21 | 45.84916 | 14.87952 | 34996 ft | 465 kts | 141° |
| 2026-05-05 19:21 | 45.80118 | 14.94189 | 34984 ft | 467 kts | 140° |
| 2026-05-05 19:22 | 45.75304 | 15.00429 | 34991 ft | 468 kts | 141° |
| 2026-05-05 19:22 | 45.70471 | 15.06681 | 35008 ft | 469 kts | 141° |
| 2026-05-05 19:23 | 45.65635 | 15.12922 | 34999 ft | 471 kts | 141° |
| 2026-05-05 19:23 | 45.60743 | 15.19221 | 34985 ft | 472 kts | 141° |
| 2026-05-05 19:24 | 45.55861 | 15.25493 | 34990 ft | 472 kts | 141° |
| 2026-05-05 19:24 | 45.50969 | 15.31761 | 34990 ft | 472 kts | 141° |
| 2026-05-05 19:25 | 45.46085 | 15.38001 | 35000 ft | 472 kts | 141° |
| 2026-05-05 19:25 | 45.41196 | 15.44234 | 34993 ft | 472 kts | 141° |
| 2026-05-05 19:26 | 45.36342 | 15.50408 | 34997 ft | 471 kts | 141° |
| 2026-05-05 19:26 | 45.31459 | 15.56604 | 34993 ft | 470 kts | 141° |
| 2026-05-05 19:27 | 45.26583 | 15.62780 | 34996 ft | 470 kts | 141° |
| 2026-05-05 19:27 | 45.21692 | 15.68954 | 35005 ft | 470 kts | 141° |
| 2026-05-05 19:28 | 45.16810 | 15.75104 | 35007 ft | 470 kts | 141° |
| 2026-05-05 19:28 | 45.11980 | 15.81172 | 34984 ft | 470 kts | 141° |
| 2026-05-05 19:29 | 45.07068 | 15.87329 | 34999 ft | 470 kts | 141° |
| 2026-05-05 19:29 | 45.02178 | 15.93447 | 34996 ft | 470 kts | 141° |
| 2026-05-05 19:30 | 44.97272 | 15.99568 | 34999 ft | 470 kts | 141° |
| 2026-05-05 19:30 | 44.92371 | 16.05668 | 35000 ft | 470 kts | 141° |
| 2026-05-05 19:31 | 44.87468 | 16.11757 | 35013 ft | 471 kts | 141° |
| 2026-05-05 19:31 | 44.82536 | 16.17867 | 35014 ft | 471 kts | 141° |
| 2026-05-05 19:32 | 44.77609 | 16.23955 | 35021 ft | 472 kts | 141° |
| 2026-05-05 19:32 | 44.72672 | 16.30044 | 35021 ft | 472 kts | 141° |
| 2026-05-05 19:33 | 44.67749 | 16.36101 | 35017 ft | 473 kts | 141° |
| 2026-05-05 19:33 | 44.62797 | 16.42179 | 35011 ft | 473 kts | 142° |
| 2026-05-05 19:34 | 44.57821 | 16.48270 | 35008 ft | 474 kts | 142° |
| 2026-05-05 19:35 | 44.50356 | 16.57386 | 35010 ft | 473 kts | 142° |
| 2026-05-05 19:35 | 44.45388 | 16.63438 | 35021 ft | 473 kts | 142° |
| 2026-05-05 19:36 | 44.40418 | 16.69473 | 35021 ft | 473 kts | 142° |
| 2026-05-05 19:36 | 44.35486 | 16.75449 | 35022 ft | 473 kts | 142° |
| 2026-05-05 19:37 | 44.30508 | 16.81491 | 35018 ft | 473 kts | 140° |
| 2026-05-05 19:37 | 44.25974 | 16.88187 | 35025 ft | 475 kts | 134° |
| 2026-05-05 19:38 | 44.21631 | 16.95125 | 35030 ft | 475 kts | 133° |
| 2026-05-05 19:38 | 44.17270 | 17.02049 | 35022 ft | 475 kts | 134° |
| 2026-05-05 19:39 | 44.12873 | 17.08921 | 35031 ft | 475 kts | 134° |
| 2026-05-05 19:39 | 44.08456 | 17.15767 | 35033 ft | 475 kts | 134° |
| 2026-05-05 19:40 | 44.04031 | 17.22603 | 35041 ft | 476 kts | 134° |
| 2026-05-05 19:40 | 43.99633 | 17.29386 | 35041 ft | 476 kts | 134° |
| 2026-05-05 19:41 | 43.95193 | 17.36216 | 35034 ft | 477 kts | 134° |
| 2026-05-05 19:41 | 43.90737 | 17.43053 | 35050 ft | 477 kts | 134° |
| 2026-05-05 19:42 | 43.86269 | 17.49895 | 35046 ft | 479 kts | 134° |
| 2026-05-05 19:42 | 43.81793 | 17.56736 | 35053 ft | 479 kts | 134° |
| 2026-05-05 19:43 | 43.77308 | 17.63572 | 35061 ft | 479 kts | 134° |
| 2026-05-05 19:43 | 43.72842 | 17.70361 | 35069 ft | 480 kts | 134° |
| 2026-05-05 19:44 | 43.68340 | 17.77188 | 35064 ft | 480 kts | 134° |
| 2026-05-05 19:44 | 43.63830 | 17.84011 | 35074 ft | 481 kts | 134° |
| 2026-05-05 19:45 | 43.59310 | 17.90832 | 35069 ft | 481 kts | 134° |
| 2026-05-05 19:45 | 43.54830 | 17.97580 | 35065 ft | 480 kts | 134° |
| 2026-05-05 19:46 | 43.50318 | 18.04357 | 35064 ft | 479 kts | 134° |
| 2026-05-05 19:46 | 43.45817 | 18.11102 | 35072 ft | 479 kts | 134° |
| 2026-05-05 19:47 | 43.41299 | 18.17857 | 35088 ft | 479 kts | 134° |
| 2026-05-05 19:47 | 43.36786 | 18.24589 | 35080 ft | 479 kts | 134° |
| 2026-05-05 19:48 | 43.32255 | 18.31331 | 35075 ft | 479 kts | 134° |
| 2026-05-05 19:48 | 43.27749 | 18.38021 | 35069 ft | 480 kts | 135° |
| 2026-05-05 19:49 | 43.23207 | 18.44746 | 35075 ft | 480 kts | 135° |
| 2026-05-05 19:49 | 43.18661 | 18.51463 | 35060 ft | 480 kts | 135° |
| 2026-05-05 19:50 | 43.14108 | 18.58168 | 35066 ft | 481 kts | 135° |
| 2026-05-05 19:50 | 43.09549 | 18.64875 | 35077 ft | 482 kts | 135° |
| 2026-05-05 19:51 | 43.04963 | 18.71605 | 35078 ft | 482 kts | 135° |
| 2026-05-05 19:51 | 43.00415 | 18.78266 | 35088 ft | 482 kts | 135° |
| 2026-05-05 19:52 | 42.95816 | 18.84980 | 35071 ft | 484 kts | 135° |
| 2026-05-05 19:52 | 42.91219 | 18.91678 | 35079 ft | 483 kts | 135° |
| 2026-05-05 19:53 | 42.86615 | 18.98369 | 35098 ft | 483 kts | 135° |
| 2026-05-05 19:53 | 42.82010 | 19.05048 | 35096 ft | 484 kts | 135° |
| 2026-05-05 19:54 | 42.77386 | 19.11737 | 35086 ft | 485 kts | 135° |
| 2026-05-05 19:54 | 42.72760 | 19.18414 | 35079 ft | 486 kts | 135° |
| 2026-05-05 19:55 | 42.68118 | 19.25097 | 35105 ft | 486 kts | 135° |
| 2026-05-05 19:55 | 42.63499 | 19.31733 | 35097 ft | 487 kts | 135° |
| 2026-05-05 19:56 | 42.58836 | 19.38416 | 35106 ft | 488 kts | 135° |
| 2026-05-05 19:56 | 42.54156 | 19.45108 | 35103 ft | 489 kts | 135° |
| 2026-05-05 19:57 | 42.49465 | 19.51803 | 35102 ft | 489 kts | 135° |
| 2026-05-05 19:57 | 42.44769 | 19.58485 | 35107 ft | 489 kts | 135° |
| 2026-05-05 19:58 | 42.40078 | 19.65145 | 35151 ft | 496 kts | 135° |
| 2026-05-05 19:58 | 42.37660 | 19.68572 | 35257 ft | 499 kts | 135° |
| 2026-05-05 19:58 | 42.36067 | 19.70828 | 35393 ft | 499 kts | 135° |
| 2026-05-05 19:58 | 42.32900 | 19.75306 | 35763 ft | 497 kts | 135° |
| 2026-05-05 19:59 | 42.30514 | 19.78676 | 36005 ft | 496 kts | 135° |
| 2026-05-05 19:59 | 42.28127 | 19.82044 | 36212 ft | 495 kts | 135° |
| 2026-05-05 19:59 | 42.25749 | 19.85396 | 36460 ft | 494 kts | 135° |
| 2026-05-05 19:59 | 42.24143 | 19.87659 | 36621 ft | 493 kts | 135° |
| 2026-05-05 20:00 | 42.21772 | 19.90996 | 36841 ft | 492 kts | 135° |
| 2026-05-05 20:00 | 42.19436 | 19.94279 | 37044 ft | 491 kts | 135° |
| 2026-05-05 20:00 | 42.17075 | 19.97591 | 37086 ft | 490 kts | 135° |
| 2026-05-05 20:01 | 42.12378 | 20.04171 | 37084 ft | 484 kts | 135° |
| 2026-05-05 20:01 | 42.07725 | 20.10673 | 37083 ft | 479 kts | 135° |
| 2026-05-05 20:02 | 42.03117 | 20.17101 | 37084 ft | 476 kts | 135° |
| 2026-05-05 20:02 | 41.98482 | 20.23547 | 37102 ft | 482 kts | 135° |
| 2026-05-05 20:03 | 41.93784 | 20.30070 | 37091 ft | 488 kts | 135° |
| 2026-05-05 20:03 | 41.89083 | 20.36583 | 37091 ft | 490 kts | 135° |
| 2026-05-05 20:04 | 41.84328 | 20.43158 | 37102 ft | 491 kts | 135° |
| 2026-05-05 20:04 | 41.79568 | 20.49725 | 37092 ft | 491 kts | 135° |
| 2026-05-05 20:05 | 41.75142 | 20.56661 | 37092 ft | 490 kts | 123° |
| 2026-05-05 20:05 | 41.71427 | 20.64300 | 37075 ft | 487 kts | 122° |
| 2026-05-05 20:06 | 41.67780 | 20.71904 | 37084 ft | 484 kts | 122° |
| 2026-05-05 20:06 | 41.64107 | 20.79433 | 37086 ft | 482 kts | 123° |
| 2026-05-05 20:07 | 41.60418 | 20.86910 | 37076 ft | 480 kts | 123° |
| 2026-05-05 20:07 | 41.56762 | 20.94286 | 37076 ft | 479 kts | 123° |
| 2026-05-05 20:08 | 41.53084 | 21.01691 | 37095 ft | 479 kts | 123° |
| 2026-05-05 20:08 | 41.49397 | 21.09104 | 37096 ft | 480 kts | 123° |
| 2026-05-05 20:09 | 41.45686 | 21.16544 | 37096 ft | 482 kts | 123° |
| 2026-05-05 20:09 | 41.41965 | 21.23987 | 37073 ft | 483 kts | 123° |
| 2026-05-05 20:10 | 41.38226 | 21.31448 | 37078 ft | 484 kts | 123° |
| 2026-05-05 20:10 | 41.34475 | 21.38913 | 37074 ft | 485 kts | 123° |
| 2026-05-05 20:11 | 41.30737 | 21.46336 | 37073 ft | 486 kts | 123° |
| 2026-05-05 20:11 | 41.26968 | 21.53802 | 37077 ft | 486 kts | 123° |
| 2026-05-05 20:12 | 41.23192 | 21.61265 | 37068 ft | 486 kts | 123° |
| 2026-05-05 20:12 | 41.19414 | 21.68712 | 37073 ft | 485 kts | 123° |
| 2026-05-05 20:13 | 41.15633 | 21.76148 | 37071 ft | 485 kts | 123° |
| 2026-05-05 20:13 | 41.11860 | 21.83553 | 37069 ft | 485 kts | 123° |
| 2026-05-05 20:14 | 41.08099 | 21.90917 | 37059 ft | 485 kts | 123° |
| 2026-05-05 20:14 | 41.04161 | 21.98190 | 37049 ft | 485 kts | 126° |
| 2026-05-05 20:15 | 41.00057 | 22.05265 | 37060 ft | 484 kts | 126° |
| 2026-05-05 20:15 | 40.95959 | 22.12333 | 37050 ft | 484 kts | 126° |
| 2026-05-05 20:16 | 40.91883 | 22.19430 | 37056 ft | 484 kts | 126° |
| 2026-05-05 20:16 | 40.87811 | 22.26540 | 37051 ft | 485 kts | 126° |
| 2026-05-05 20:17 | 40.83761 | 22.33600 | 37054 ft | 485 kts | 126° |
| 2026-05-05 20:17 | 40.79676 | 22.40696 | 37056 ft | 486 kts | 126° |
| 2026-05-05 20:18 | 40.75569 | 22.47813 | 37047 ft | 487 kts | 126° |
| 2026-05-05 20:18 | 40.71454 | 22.54928 | 37044 ft | 488 kts | 126° |
| 2026-05-05 20:19 | 40.67350 | 22.62011 | 37035 ft | 489 kts | 126° |
| 2026-05-05 20:19 | 40.63217 | 22.69122 | 37042 ft | 490 kts | 126° |
| 2026-05-05 20:20 | 40.59057 | 22.76265 | 37029 ft | 491 kts | 126° |
| 2026-05-05 20:20 | 40.54899 | 22.83389 | 37025 ft | 491 kts | 126° |
| 2026-05-05 20:21 | 40.50732 | 22.90518 | 37020 ft | 491 kts | 126° |
| 2026-05-05 20:21 | 40.46562 | 22.97631 | 37020 ft | 491 kts | 126° |
| 2026-05-05 20:22 | 40.42853 | 23.05025 | 37028 ft | 487 kts | 118° |
| 2026-05-05 20:22 | 40.39483 | 23.12717 | 37023 ft | 485 kts | 117° |
| 2026-05-05 20:23 | 40.36123 | 23.20406 | 37009 ft | 484 kts | 117° |
| 2026-05-05 20:23 | 40.32729 | 23.28024 | 37026 ft | 483 kts | 118° |
| 2026-05-05 20:24 | 40.29317 | 23.35593 | 37023 ft | 481 kts | 118° |
| 2026-05-05 20:24 | 40.25933 | 23.43069 | 37026 ft | 480 kts | 118° |
| 2026-05-05 20:25 | 40.22527 | 23.50579 | 37027 ft | 479 kts | 118° |
| 2026-05-05 20:25 | 40.19119 | 23.58078 | 37028 ft | 479 kts | 118° |
| 2026-05-05 20:26 | 40.15710 | 23.65562 | 37027 ft | 479 kts | 118° |
| 2026-05-05 20:26 | 40.12285 | 23.73067 | 37028 ft | 480 kts | 118° |
| 2026-05-05 20:27 | 40.08860 | 23.80548 | 37026 ft | 480 kts | 118° |
| 2026-05-05 20:27 | 40.05428 | 23.88032 | 37033 ft | 481 kts | 118° |
| 2026-05-05 20:28 | 40.02005 | 23.95474 | 37035 ft | 481 kts | 118° |
| 2026-05-05 20:28 | 39.98554 | 24.02964 | 37034 ft | 482 kts | 118° |
| 2026-05-05 20:29 | 39.95093 | 24.10454 | 37044 ft | 482 kts | 118° |
| 2026-05-05 20:29 | 39.91611 | 24.17971 | 37038 ft | 483 kts | 118° |
| 2026-05-05 20:30 | 39.88135 | 24.25459 | 37041 ft | 483 kts | 118° |
| 2026-05-05 20:30 | 39.84666 | 24.32912 | 37033 ft | 483 kts | 118° |
| 2026-05-05 20:31 | 39.81170 | 24.40408 | 37031 ft | 484 kts | 119° |
| 2026-05-05 20:31 | 39.77668 | 24.47897 | 37039 ft | 484 kts | 119° |
| 2026-05-05 20:32 | 39.74173 | 24.55350 | 37033 ft | 483 kts | 119° |
| 2026-05-05 20:32 | 39.70689 | 24.62766 | 37035 ft | 483 kts | 119° |
| 2026-05-05 20:33 | 39.67183 | 24.70212 | 37039 ft | 483 kts | 119° |
| 2026-05-05 20:33 | 39.63668 | 24.77660 | 37048 ft | 482 kts | 119° |
| 2026-05-05 20:34 | 39.60162 | 24.85066 | 37048 ft | 482 kts | 119° |
| 2026-05-05 20:34 | 39.56650 | 24.92468 | 37051 ft | 481 kts | 119° |
| 2026-05-05 20:35 | 39.53163 | 24.99810 | 37046 ft | 481 kts | 119° |
| 2026-05-05 20:35 | 39.49643 | 25.07195 | 37043 ft | 481 kts | 119° |
| 2026-05-05 20:36 | 39.46129 | 25.14549 | 37048 ft | 480 kts | 120° |
| 2026-05-05 20:36 | 39.42610 | 25.21899 | 37045 ft | 479 kts | 120° |
| 2026-05-05 20:37 | 39.39093 | 25.29225 | 37050 ft | 479 kts | 120° |
| 2026-05-05 20:37 | 39.35571 | 25.36547 | 37057 ft | 479 kts | 120° |
| 2026-05-05 20:38 | 39.32048 | 25.43855 | 37055 ft | 479 kts | 120° |
| 2026-05-05 20:38 | 39.28527 | 25.51144 | 37064 ft | 478 kts | 120° |
| 2026-05-05 20:39 | 39.25018 | 25.58389 | 37066 ft | 479 kts | 120° |
| 2026-05-05 20:39 | 39.21482 | 25.65674 | 37064 ft | 479 kts | 120° |
| 2026-05-05 20:40 | 39.17934 | 25.72964 | 37065 ft | 479 kts | 120° |
| 2026-05-05 20:40 | 39.14387 | 25.80240 | 37065 ft | 480 kts | 120° |
| 2026-05-05 20:41 | 39.10829 | 25.87521 | 37069 ft | 480 kts | 120° |
| 2026-05-05 20:41 | 39.07287 | 25.94750 | 37074 ft | 480 kts | 120° |
| 2026-05-05 20:42 | 39.03708 | 26.02041 | 37077 ft | 481 kts | 120° |
| 2026-05-05 20:42 | 39.00127 | 26.09311 | 37065 ft | 481 kts | 121° |
| 2026-05-05 20:43 | 38.96546 | 26.16575 | 37064 ft | 481 kts | 121° |
| 2026-05-05 20:43 | 38.92953 | 26.23847 | 37067 ft | 481 kts | 121° |
| 2026-05-05 20:44 | 38.89383 | 26.31054 | 37071 ft | 481 kts | 121° |
| 2026-05-05 20:44 | 38.85790 | 26.38295 | 37073 ft | 481 kts | 121° |
| 2026-05-05 20:45 | 38.82326 | 26.50129 | 37075 ft | 471 kts | 95° |
| 2026-05-05 20:45 | 38.81386 | 26.58438 | 37074 ft | 471 kts | 95° |
| 2026-05-05 20:46 | 38.80589 | 26.65347 | 37076 ft | 471 kts | 95° |
| 2026-05-05 20:46 | 38.79574 | 26.73661 | 37074 ft | 472 kts | 96° |
| 2026-05-05 20:47 | 38.78534 | 26.81982 | 37074 ft | 472 kts | 96° |
| 2026-05-05 20:47 | 38.77493 | 26.90290 | 37075 ft | 473 kts | 96° |
| 2026-05-05 20:48 | 38.76711 | 26.94400 | 37065 ft | 477 kts | 107° |
| 2026-05-05 20:48 | 38.75434 | 26.98330 | 37081 ft | 479 kts | 115° |
| 2026-05-05 20:48 | 38.71695 | 27.05423 | 37081 ft | 481 kts | 127° |
| 2026-05-05 20:49 | 38.67579 | 27.12199 | 37075 ft | 482 kts | 127° |
| 2026-05-05 20:49 | 38.63501 | 27.19002 | 37067 ft | 481 kts | 126° |
| 2026-05-05 20:50 | 38.59489 | 27.25789 | 37064 ft | 481 kts | 126° |
| 2026-05-05 20:50 | 38.55467 | 27.32593 | 37060 ft | 480 kts | 126° |
| 2026-05-05 20:51 | 38.51582 | 27.39146 | 37063 ft | 479 kts | 126° |
| 2026-05-05 20:51 | 38.47552 | 27.45920 | 37073 ft | 478 kts | 126° |
| 2026-05-05 20:52 | 38.43521 | 27.52681 | 37075 ft | 477 kts | 127° |
| 2026-05-05 20:52 | 38.39498 | 27.59418 | 37074 ft | 478 kts | 127° |
| 2026-05-05 20:53 | 38.35469 | 27.66151 | 37079 ft | 478 kts | 127° |
| 2026-05-05 20:53 | 38.31434 | 27.72884 | 37060 ft | 478 kts | 127° |
| 2026-05-05 20:54 | 38.27393 | 27.79614 | 37053 ft | 478 kts | 127° |
| 2026-05-05 20:54 | 38.23363 | 27.86307 | 37042 ft | 479 kts | 127° |
| 2026-05-05 20:55 | 38.19311 | 27.93034 | 37055 ft | 479 kts | 127° |
| 2026-05-05 20:55 | 38.15252 | 27.99763 | 37054 ft | 479 kts | 127° |
| 2026-05-05 20:56 | 38.11192 | 28.06482 | 37056 ft | 479 kts | 127° |
| 2026-05-05 20:56 | 38.07125 | 28.13196 | 37059 ft | 480 kts | 127° |
| 2026-05-05 20:57 | 38.03049 | 28.19910 | 37057 ft | 481 kts | 127° |
| 2026-05-05 20:57 | 37.98962 | 28.26631 | 37056 ft | 480 kts | 127° |
| 2026-05-05 20:58 | 37.94876 | 28.33336 | 37056 ft | 480 kts | 127° |
| 2026-05-05 20:58 | 37.90815 | 28.39983 | 37048 ft | 480 kts | 127° |
| 2026-05-05 20:59 | 37.86719 | 28.46676 | 37052 ft | 480 kts | 127° |
| 2026-05-05 20:59 | 37.82617 | 28.53367 | 37044 ft | 481 kts | 128° |
| 2026-05-05 21:00 | 37.78511 | 28.60050 | 37053 ft | 481 kts | 128° |
| 2026-05-05 21:00 | 37.74433 | 28.66677 | 37052 ft | 480 kts | 128° |
| 2026-05-05 21:01 | 37.70807 | 28.73735 | 37050 ft | 479 kts | 114° |
| 2026-05-05 21:01 | 37.68061 | 28.81419 | 36716 ft | 485 kts | 112° |
| 2026-05-05 21:02 | 37.66689 | 28.85327 | 36208 ft | 485 kts | 112° |
| 2026-05-05 21:02 | 37.65320 | 28.89218 | 35647 ft | 484 kts | 112° |
| 2026-05-05 21:02 | 37.63987 | 28.93110 | 35106 ft | 483 kts | 111° |
| 2026-05-05 21:02 | 37.62672 | 28.97007 | 34472 ft | 484 kts | 111° |
| 2026-05-05 21:03 | 37.61357 | 29.00923 | 33834 ft | 485 kts | 111° |
| 2026-05-05 21:03 | 37.60038 | 29.04842 | 33174 ft | 486 kts | 111° |
| 2026-05-05 21:03 | 37.58715 | 29.08759 | 32503 ft | 487 kts | 111° |
| 2026-05-05 21:03 | 37.57382 | 29.12689 | 32017 ft | 484 kts | 112° |
| 2026-05-05 21:04 | 37.56074 | 29.16526 | 31528 ft | 481 kts | 112° |
| 2026-05-05 21:04 | 37.54755 | 29.20393 | 31032 ft | 478 kts | 112° |
| 2026-05-05 21:04 | 37.53443 | 29.24228 | 30560 ft | 474 kts | 112° |
| 2026-05-05 21:04 | 37.52140 | 29.28031 | 30079 ft | 470 kts | 112° |
| 2026-05-05 21:05 | 37.50846 | 29.31802 | 29601 ft | 466 kts | 112° |
| 2026-05-05 21:05 | 37.49563 | 29.35538 | 29115 ft | 463 kts | 112° |
| 2026-05-05 21:05 | 37.48287 | 29.39252 | 28630 ft | 460 kts | 112° |
| 2026-05-05 21:05 | 37.47022 | 29.42928 | 28131 ft | 456 kts | 112° |
| 2026-05-05 21:06 | 37.45765 | 29.46578 | 27660 ft | 453 kts | 112° |
| 2026-05-05 21:06 | 37.44515 | 29.50203 | 27186 ft | 449 kts | 112° |
| 2026-05-05 21:06 | 37.43276 | 29.53795 | 26703 ft | 446 kts | 112° |
| 2026-05-05 21:06 | 37.42042 | 29.57361 | 26227 ft | 442 kts | 112° |
| 2026-05-05 21:07 | 37.40835 | 29.60849 | 25760 ft | 439 kts | 113° |
| 2026-05-05 21:07 | 37.39622 | 29.64348 | 25295 ft | 435 kts | 113° |
| 2026-05-05 21:07 | 37.38413 | 29.67835 | 24814 ft | 432 kts | 113° |
| 2026-05-05 21:07 | 37.37216 | 29.71282 | 24347 ft | 428 kts | 113° |
| 2026-05-05 21:08 | 37.36029 | 29.74696 | 23875 ft | 425 kts | 113° |
| 2026-05-05 21:08 | 37.34850 | 29.78080 | 23412 ft | 421 kts | 113° |
| 2026-05-05 21:08 | 37.33678 | 29.81446 | 22951 ft | 418 kts | 113° |
| 2026-05-05 21:08 | 37.32514 | 29.84781 | 22499 ft | 414 kts | 113° |
| 2026-05-05 21:09 | 37.31362 | 29.88081 | 22048 ft | 411 kts | 113° |
| 2026-05-05 21:09 | 37.30214 | 29.91361 | 21594 ft | 408 kts | 113° |
| 2026-05-05 21:09 | 37.29089 | 29.94574 | 21155 ft | 405 kts | 114° |
| 2026-05-05 21:09 | 37.27961 | 29.97793 | 20705 ft | 402 kts | 113° |
| 2026-05-05 21:10 | 37.26837 | 30.00997 | 20268 ft | 399 kts | 114° |
| 2026-05-05 21:10 | 37.25720 | 30.04176 | 19825 ft | 396 kts | 114° |
| 2026-05-05 21:10 | 37.24611 | 30.07332 | 19371 ft | 393 kts | 114° |
| 2026-05-05 21:10 | 37.23507 | 30.10467 | 18947 ft | 391 kts | 114° |
| 2026-05-05 21:11 | 37.22411 | 30.13578 | 18510 ft | 388 kts | 114° |
| 2026-05-05 21:11 | 37.21324 | 30.16658 | 18086 ft | 385 kts | 114° |
| 2026-05-05 21:11 | 37.20243 | 30.19723 | 17650 ft | 382 kts | 114° |
| 2026-05-05 21:11 | 37.19170 | 30.22759 | 17230 ft | 379 kts | 114° |
| 2026-05-05 21:12 | 37.18103 | 30.25775 | 16807 ft | 377 kts | 114° |
| 2026-05-05 21:12 | 37.17056 | 30.28732 | 16392 ft | 374 kts | 114° |
| 2026-05-05 21:12 | 37.15989 | 30.31745 | 15964 ft | 371 kts | 114° |
| 2026-05-05 21:12 | 37.14955 | 30.34659 | 15552 ft | 370 kts | 114° |
| 2026-05-05 21:13 | 37.13912 | 30.37595 | 15149 ft | 367 kts | 114° |
| 2026-05-05 21:13 | 37.12876 | 30.40507 | 14743 ft | 366 kts | 114° |
| 2026-05-05 21:13 | 37.11842 | 30.43414 | 14321 ft | 364 kts | 114° |
| 2026-05-05 21:13 | 37.10813 | 30.46304 | 13901 ft | 362 kts | 114° |
| 2026-05-05 21:14 | 37.09791 | 30.49172 | 13495 ft | 359 kts | 114° |
| 2026-05-05 21:14 | 37.08785 | 30.51994 | 13082 ft | 358 kts | 114° |
| 2026-05-05 21:14 | 37.07775 | 30.54824 | 12671 ft | 355 kts | 114° |
| 2026-05-05 21:14 | 37.06770 | 30.57638 | 12283 ft | 352 kts | 114° |
| 2026-05-05 21:15 | 37.05774 | 30.60422 | 11883 ft | 349 kts | 114° |
| 2026-05-05 21:15 | 37.04786 | 30.63179 | 11557 ft | 344 kts | 114° |
| 2026-05-05 21:15 | 37.03529 | 30.65673 | 11344 ft | 335 kts | 135° |
| 2026-05-05 21:15 | 37.01675 | 30.67329 | 11157 ft | 325 kts | 156° |
| 2026-05-05 21:16 | 36.99546 | 30.68111 | 10965 ft | 315 kts | 175° |
| 2026-05-05 21:16 | 36.97396 | 30.68097 | 10833 ft | 304 kts | 185° |
| 2026-05-05 21:16 | 36.95309 | 30.67899 | 10675 ft | 296 kts | 186° |
| 2026-05-05 21:16 | 36.93287 | 30.67704 | 10388 ft | 295 kts | 185° |
| 2026-05-05 21:17 | 36.91244 | 30.67516 | 10065 ft | 294 kts | 185° |
| 2026-05-05 21:17 | 36.89201 | 30.67336 | 9721 ft | 294 kts | 185° |
| 2026-05-05 21:17 | 36.87163 | 30.67164 | 9400 ft | 293 kts | 184° |
| 2026-05-05 21:17 | 36.85134 | 30.66996 | 9090 ft | 291 kts | 184° |
| 2026-05-05 21:18 | 36.83117 | 30.66829 | 8773 ft | 290 kts | 184° |
| 2026-05-05 21:18 | 36.81096 | 30.66661 | 8455 ft | 289 kts | 184° |
| 2026-05-05 21:18 | 36.79117 | 30.66498 | 8169 ft | 288 kts | 184° |
| 2026-05-05 21:18 | 36.77124 | 30.66332 | 7873 ft | 286 kts | 184° |
| 2026-05-05 21:19 | 36.75153 | 30.66168 | 7485 ft | 281 kts | 184° |
| 2026-05-05 21:19 | 36.73201 | 30.66006 | 6999 ft | 282 kts | 184° |
| 2026-05-05 21:19 | 36.71254 | 30.65845 | 6763 ft | 279 kts | 184° |
| 2026-05-05 21:19 | 36.69314 | 30.65685 | 6483 ft | 279 kts | 184° |
| 2026-05-05 21:20 | 36.67380 | 30.65525 | 6212 ft | 278 kts | 184° |
| 2026-05-05 21:20 | 36.65463 | 30.65660 | 5921 ft | 277 kts | 163° |
| 2026-05-05 21:20 | 36.63809 | 30.66836 | 5667 ft | 274 kts | 135° |
| 2026-05-05 21:20 | 36.62761 | 30.68743 | 5427 ft | 271 kts | 110° |
| 2026-05-05 21:21 | 36.62605 | 30.71030 | 5141 ft | 267 kts | 75° |
| 2026-05-05 21:21 | 36.63448 | 30.73033 | 4866 ft | 262 kts | 46° |
| 2026-05-05 21:21 | 36.64875 | 30.74403 | 4572 ft | 260 kts | 25° |
| 2026-05-05 21:21 | 36.66573 | 30.75147 | 4289 ft | 257 kts | 15° |
| 2026-05-05 21:22 | 36.68272 | 30.75759 | 3983 ft | 251 kts | 15° |
| 2026-05-05 21:22 | 36.69917 | 30.76356 | 3680 ft | 246 kts | 15° |
| 2026-05-05 21:22 | 36.71565 | 30.76840 | 3392 ft | 239 kts | 5° |
| 2026-05-05 21:22 | 36.73181 | 30.76999 | 3161 ft | 229 kts | 3° |
| 2026-05-05 21:23 | 36.74754 | 30.77169 | 2867 ft | 224 kts | 5° |
| 2026-05-05 21:23 | 36.76281 | 30.77372 | 2582 ft | 217 kts | 5° |
| 2026-05-05 21:23 | 36.77747 | 30.77576 | 2307 ft | 212 kts | 5° |
| 2026-05-05 21:23 | 36.79178 | 30.77775 | 2013 ft | 201 kts | 5° |
| 2026-05-05 21:24 | 36.80528 | 30.77961 | 1749 ft | 189 kts | 5° |
| 2026-05-05 21:24 | 36.81791 | 30.78132 | 1516 ft | 176 kts | 5° |
| 2026-05-05 21:24 | 36.82945 | 30.78292 | 1313 ft | 159 kts | 5° |
| 2026-05-05 21:24 | 36.84008 | 30.78439 | 1087 ft | 151 kts | 4° |
| 2026-05-05 21:25 | 36.85060 | 30.78580 | 880 ft | 153 kts | 4° |
| 2026-05-05 21:25 | 36.86129 | 30.78732 | 688 ft | 155 kts | 6° |
| 2026-05-05 21:25 | 36.87192 | 30.78880 | 461 ft | 153 kts | 5° |
| 2026-05-05 21:25 | 36.88243 | 30.79023 | 277 ft | 151 kts | 5° |
| 2026-05-05 21:26 | 36.89256 | 30.79156 | 175 ft | 132 kts | 7° |
| 2026-05-05 21:26 | 36.90025 | 30.79264 | 175 ft | 90 kts | 6° |
| 2026-05-05 21:26 | 36.90488 | 30.79327 | 175 ft | 33 kts | 7° |
| 2026-05-05 21:26 | 36.90656 | 30.79391 | 176 ft | 17 kts | 32° |
| 2026-05-05 21:27 | 36.90742 | 30.79469 | 176 ft | 13 kts | 36° |
| 2026-05-05 21:27 | 36.90799 | 30.79535 | 175 ft | 9 kts | 75° |
| 2026-05-05 21:27 | 36.90762 | 30.79585 | 175 ft | 9 kts | 176° |
| 2026-05-05 21:27 | 36.90702 | 30.79578 | 175 ft | 9 kts | 186° |
| 2026-05-05 21:28 | 36.90643 | 30.79571 | 175 ft | 8 kts | 186° |
| 2026-05-05 21:28 | 36.90587 | 30.79563 | 175 ft | 8 kts | 186° |
| 2026-05-05 21:28 | 36.90531 | 30.79556 | 175 ft | 8 kts | 186° |
| 2026-05-05 21:28 | 36.90479 | 30.79550 | 175 ft | 8 kts | 186° |
| 2026-05-05 21:29 | 36.90430 | 30.79562 | 175 ft | 7 kts | 136° |
| 2026-05-05 21:29 | 36.90415 | 30.79621 | 175 ft | 7 kts | 97° |
| 2026-05-05 21:29 | 36.90408 | 30.79688 | 175 ft | 9 kts | 96° |
| 2026-05-05 21:29 | 36.90399 | 30.79788 | 175 ft | 14 kts | 96° |
| 2026-05-05 21:30 | 36.90387 | 30.79919 | 175 ft | 15 kts | 96° |
| 2026-05-05 21:30 | 36.90375 | 30.80050 | 175 ft | 15 kts | 96° |
| 2026-05-05 21:30 | 36.90364 | 30.80176 | 175 ft | 14 kts | 96° |
| 2026-05-05 21:30 | 36.90353 | 30.80296 | 175 ft | 14 kts | 96° |
| 2026-05-05 21:31 | 36.90342 | 30.80411 | 175 ft | 13 kts | 96° |
| 2026-05-05 21:31 | 36.90332 | 30.80521 | 175 ft | 13 kts | 96° |
| 2026-05-05 21:31 | 36.90325 | 30.80627 | 175 ft | 10 kts | 95° |
| 2026-05-05 21:31 | 36.90284 | 30.80676 | 175 ft | 9 kts | 183° |
| 2026-05-05 21:32 | 36.90242 | 30.80669 | 175 ft | 9 kts | 187° |
| 2026-05-05 21:32 | 36.90161 | 30.80657 | 175 ft | 9 kts | 187° |
| 2026-05-05 21:32 | 36.90100 | 30.80648 | 175 ft | 9 kts | 186° |
| 2026-05-05 21:32 | 36.90042 | 30.80641 | 175 ft | 8 kts | 185° |
| 2026-05-05 21:33 | 36.90007 | 30.80598 | 175 ft | 8 kts | 273° |
| 2026-05-05 21:33 | 36.90011 | 30.80554 | 175 ft | 2 kts | 277° |
| 2026-05-05 21:33 | 36.90012 | 30.80545 | 175 ft | 1 kts | 277° |
| 2026-05-05 21:33 | 36.90013 | 30.80540 | 175 ft | 0 kts | 277° |